Country
Station

 

Weather  for  Winchester Regional  -  United States    United States

  
22 °C (72 °F)
    
 
 

Current METAR for Winchester Regional is :

KOKV 212235Z AUTO 00000KT 10SM SCT070 BKN085 OVC100 22/15 A3028 RMK AO2

 

This is a report for Winchester Regional - United States.
 
The report was made 15 minutes ago, at 22:35 UTC .
The wind was calm.
 
The temperature was 22 °C (72 °F), with a dew-point at 15 °C (59 °F).
The temperature felt like 24 °C (76 °F).
 
The atmospheric pressure was 1025 hPa (30.28 inHg).
The relative humidity was 64.5%.
 
There were scattered clouds at a height of 2134 meters (7000 feet) and broken clouds at a height of 2591 meters (8500 feet). The sky was overcast from a height of 3048 meter (10000 feet)
 
The overall visibility was 16.1 kilometers (10.0 miles).
 

 
 
 
 

Country :   A   B   C   D   E   F   G   H   I   J   K   L   M   N   O   P   Q   R   S   T   U   V   W   Y   Z

 

Site Info  |  Disclaimer  |  Credits  |  Privacy
Contact us  |  Add to favorites
© 2013-2018 METARs - All rights reserved